Pagina principale
METAR-TAF:

METAR-TAF

Aeroporti :

Naples, Florida, Stati Uniti

latitudine: 26-09N, longitudine: 081-46W, altezza: 2 m

Osservazione

Il bollettino è stato emesso 38 minuti fa, alle 22:53 UTC
Vento 3 kt da sud/sud-ovest
Temperature 24°C
Umidità 74%
Pressione 1018 hPa
Visibilità: 16.1 km
Cielo sereno

METAR: KAPF 092253Z 21003KT 10SM CLR 24/19 A3005 RMK AO2 SLP175 T02440194 $

Ora: 18:31 (23:31 UTC)

Previsione

Il bollettino è stato emesso 2 ore e 15 minuti fa, alle 21:16 UTC
Previsione valida dal 09 alle 21 UTC al 10 alle 18 UTC
Vento 8 kt da sud/sud-ovest
Visibilità: 10 km
Nubi sparse ad un'altezza di 3000 ft
A partire da 10 alle 0000 UTC
Vento 4 kt da direzioni variabili
Visibilità: 10 km
Poco nuvoloso ad un'altezza di 10000 ft
A partire da 10 alle 1500 UTC
Vento 10 kt da est/sud-est
Visibilità: 10 km
Nubi sparse ad un'altezza di 3000 ft

TAF: KAPF 092116Z 0921/1018 20008KT P6SM SCT030 FM100000 VRB04KT P6SM FEW100 FM101500 12010KT P6SM SCT030

Osservazioni e previsioni meteorologiche di più di 4000 aeroporti (messaggi METAR e TAF).

Le stazioni disponibili sono rappresentate dai dischi gialli e rossi sulla carta.

Puntare il mouse per vedere il nome della stazione.

Clicca sopra per visualizzare le osservazioni e previsioni meteorologiche.

Per cambiare la mappa : fare clic sui pulsanti verdi con una croce nera per ingrandire, il pulsante verde con un trattino per diminuire, o sulla freccia verde per le mappe adiacenti.


METAR-TAF: